ETD48L OMAA-OMDB
Flight info
| Callsign | ETD48L |
|---|---|
| Flight time | 0h 23m |
| Altitude | 20000 |
| Route | LORID1P LORID LORID4D |
| Aircraft | A21N/M-SDE2E3FGHIRWXY/LB1 |
Departure
| Time | 2026-04-23 20:46 |
|---|---|
| Airport | Zayed International Airport (OMAA) |
Arrival
| Time | 2026-04-23 21:10 |
|---|---|
| Airport | Dubai International Airport (OMDB) |
| Time | Latitude | Longitude | Altitude | Speed | Heading |
|---|---|---|---|---|---|
| 2026-04-23 20:16 | 24.45040 | 54.64989 | 84 ft | 0 kts | 259° |
| 2026-04-23 20:27 | 24.45041 | 54.64995 | 81 ft | 0 kts | 259° |
| 2026-04-23 20:36 | 24.45042 | 54.65002 | 86 ft | 4 kts | 260° |
| 2026-04-23 20:36 | 24.45047 | 54.65031 | 84 ft | 4 kts | 261° |
| 2026-04-23 20:36 | 24.45051 | 54.65060 | 82 ft | 4 kts | 262° |
| 2026-04-23 20:37 | 24.45054 | 54.65090 | 81 ft | 4 kts | 262° |
| 2026-04-23 20:37 | 24.45058 | 54.65115 | 83 ft | 4 kts | 263° |
| 2026-04-23 20:37 | 24.45055 | 54.65139 | 82 ft | 4 kts | 317° |
| 2026-04-23 20:37 | 24.45038 | 54.65142 | 86 ft | 4 kts | 29° |
| 2026-04-23 20:38 | 24.45017 | 54.65125 | 86 ft | 4 kts | 35° |
| 2026-04-23 20:38 | 24.44999 | 54.65111 | 85 ft | 0 kts | 37° |
| 2026-04-23 20:41 | 24.45005 | 54.65116 | 87 ft | 3 kts | 37° |
| 2026-04-23 20:41 | 24.45032 | 54.65139 | 82 ft | 7 kts | 37° |
| 2026-04-23 20:41 | 24.45084 | 54.65183 | 82 ft | 12 kts | 38° |
| 2026-04-23 20:41 | 24.45145 | 54.65259 | 84 ft | 16 kts | 94° |
| 2026-04-23 20:42 | 24.45083 | 54.65370 | 85 ft | 19 kts | 128° |
| 2026-04-23 20:42 | 24.44995 | 54.65491 | 82 ft | 22 kts | 128° |
| 2026-04-23 20:42 | 24.44895 | 54.65630 | 87 ft | 24 kts | 128° |
| 2026-04-23 20:42 | 24.44785 | 54.65785 | 83 ft | 27 kts | 127° |
| 2026-04-23 20:43 | 24.44666 | 54.65957 | 85 ft | 29 kts | 128° |
| 2026-04-23 20:43 | 24.44533 | 54.66139 | 87 ft | 32 kts | 128° |
| 2026-04-23 20:43 | 24.44394 | 54.66338 | 87 ft | 34 kts | 127° |
| 2026-04-23 20:43 | 24.44302 | 54.66468 | 88 ft | 20 kts | 127° |
| 2026-04-23 20:44 | 24.44213 | 54.66593 | 87 ft | 22 kts | 128° |
| 2026-04-23 20:44 | 24.44125 | 54.66728 | 86 ft | 19 kts | 91° |
| 2026-04-23 20:44 | 24.44185 | 54.66809 | 86 ft | 7 kts | 36° |
| 2026-04-23 20:44 | 24.44192 | 54.66815 | 86 ft | 0 kts | 36° |
| 2026-04-23 20:45 | 24.44195 | 54.66817 | 86 ft | 2 kts | 36° |
| 2026-04-23 20:45 | 24.44217 | 54.66835 | 88 ft | 6 kts | 36° |
| 2026-04-23 20:45 | 24.44260 | 54.66869 | 87 ft | 10 kts | 36° |
| 2026-04-23 20:45 | 24.44333 | 54.66889 | 88 ft | 14 kts | 315° |
| 2026-04-23 20:46 | 24.44448 | 54.66729 | 86 ft | 70 kts | 308° |
| 2026-04-23 20:46 | 24.45011 | 54.65950 | 178 ft | 174 kts | 311° |
| 2026-04-23 20:46 | 24.45838 | 54.64853 | 1233 ft | 197 kts | 314° |
| 2026-04-23 20:46 | 24.46689 | 54.63584 | 2375 ft | 215 kts | 304° |
| 2026-04-23 20:47 | 24.47692 | 54.62328 | 3176 ft | 232 kts | 329° |
| 2026-04-23 20:47 | 24.49261 | 54.61644 | 3652 ft | 249 kts | 343° |
| 2026-04-23 20:47 | 24.50910 | 54.61092 | 4429 ft | 253 kts | 342° |
| 2026-04-23 20:47 | 24.52605 | 54.60496 | 5501 ft | 259 kts | 340° |
| 2026-04-23 20:48 | 24.54333 | 54.59855 | 6603 ft | 263 kts | 339° |
| 2026-04-23 20:48 | 24.56075 | 54.59191 | 7682 ft | 267 kts | 338° |
| 2026-04-23 20:48 | 24.57841 | 54.58507 | 8768 ft | 272 kts | 337° |
| 2026-04-23 20:48 | 24.59638 | 54.57804 | 9869 ft | 276 kts | 337° |
| 2026-04-23 20:49 | 24.61510 | 54.57233 | 10927 ft | 284 kts | 352° |
| 2026-04-23 20:49 | 24.62830 | 54.57309 | 11577 ft | 295 kts | 8° |
| 2026-04-23 20:49 | 24.64929 | 54.57834 | 12080 ft | 324 kts | 10° |
| 2026-04-23 20:49 | 24.68028 | 54.58591 | 12631 ft | 363 kts | 10° |
| 2026-04-23 20:50 | 24.70573 | 54.59229 | 13034 ft | 387 kts | 11° |
| 2026-04-23 20:50 | 24.73268 | 54.59922 | 13523 ft | 405 kts | 11° |
| 2026-04-23 20:50 | 24.75139 | 54.60408 | 13813 ft | 411 kts | 11° |
| 2026-04-23 20:50 | 24.77927 | 54.61144 | 13918 ft | 412 kts | 11° |
| 2026-04-23 20:51 | 24.80677 | 54.61874 | 13891 ft | 413 kts | 11° |
| 2026-04-23 20:51 | 24.83473 | 54.62613 | 13856 ft | 414 kts | 11° |
| 2026-04-23 20:51 | 24.86306 | 54.63356 | 13839 ft | 414 kts | 11° |
| 2026-04-23 20:51 | 24.89070 | 54.64072 | 13830 ft | 414 kts | 11° |
| 2026-04-23 20:52 | 24.92822 | 54.65322 | 13823 ft | 434 kts | 21° |
| 2026-04-23 20:52 | 24.94617 | 54.66333 | 13820 ft | 437 kts | 29° |
| 2026-04-23 20:52 | 24.97135 | 54.68214 | 13822 ft | 438 kts | 34° |
| 2026-04-23 20:52 | 24.99592 | 54.70171 | 13765 ft | 428 kts | 34° |
| 2026-04-23 20:53 | 25.01974 | 54.72057 | 13075 ft | 417 kts | 34° |
| 2026-04-23 20:53 | 25.04327 | 54.73897 | 12196 ft | 413 kts | 34° |
| 2026-04-23 20:53 | 25.06654 | 54.75717 | 11468 ft | 406 kts | 34° |
| 2026-04-23 20:53 | 25.08912 | 54.77485 | 11098 ft | 390 kts | 34° |
| 2026-04-23 20:54 | 25.11085 | 54.79181 | 10835 ft | 374 kts | 34° |
| 2026-04-23 20:54 | 25.13177 | 54.80802 | 10574 ft | 360 kts | 34° |
| 2026-04-23 20:54 | 25.15160 | 54.82356 | 10348 ft | 347 kts | 36° |
| 2026-04-23 20:54 | 25.17002 | 54.83998 | 10154 ft | 334 kts | 39° |
| 2026-04-23 20:55 | 25.18748 | 54.85627 | 10000 ft | 322 kts | 39° |
| 2026-04-23 20:55 | 25.20428 | 54.87206 | 9922 ft | 316 kts | 39° |
| 2026-04-23 20:55 | 25.22100 | 54.88770 | 9926 ft | 315 kts | 39° |
| 2026-04-23 20:55 | 25.23774 | 54.90335 | 9947 ft | 315 kts | 39° |
| 2026-04-23 20:56 | 25.25453 | 54.91900 | 9951 ft | 316 kts | 39° |
| 2026-04-23 20:56 | 25.27133 | 54.93470 | 9955 ft | 315 kts | 39° |
| 2026-04-23 20:56 | 25.28670 | 54.95178 | 9945 ft | 313 kts | 54° |
| 2026-04-23 20:56 | 25.29721 | 54.97260 | 9562 ft | 309 kts | 65° |
| 2026-04-23 20:57 | 25.30481 | 54.99477 | 9070 ft | 308 kts | 81° |
| 2026-04-23 20:57 | 25.30498 | 55.01814 | 8628 ft | 303 kts | 102° |
| 2026-04-23 20:57 | 25.29817 | 55.03988 | 8218 ft | 298 kts | 117° |
| 2026-04-23 20:57 | 25.28904 | 55.06031 | 7980 ft | 297 kts | 118° |
| 2026-04-23 20:58 | 25.27984 | 55.08070 | 7937 ft | 297 kts | 118° |
| 2026-04-23 20:58 | 25.27077 | 55.10117 | 7940 ft | 297 kts | 118° |
| 2026-04-23 20:58 | 25.26182 | 55.12173 | 7952 ft | 297 kts | 117° |
| 2026-04-23 20:58 | 25.25304 | 55.14204 | 7960 ft | 297 kts | 117° |
| 2026-04-23 20:59 | 25.24403 | 55.16289 | 7966 ft | 297 kts | 117° |
| 2026-04-23 20:59 | 25.23525 | 55.18322 | 7969 ft | 297 kts | 117° |
| 2026-04-23 20:59 | 25.22640 | 55.20383 | 7971 ft | 297 kts | 117° |
| 2026-04-23 20:59 | 25.21760 | 55.22431 | 7858 ft | 291 kts | 117° |
| 2026-04-23 21:00 | 25.20891 | 55.24455 | 7428 ft | 292 kts | 117° |
| 2026-04-23 21:00 | 25.20017 | 55.26486 | 6992 ft | 292 kts | 117° |
| 2026-04-23 21:00 | 25.19141 | 55.28510 | 6582 ft | 292 kts | 117° |
| 2026-04-23 21:00 | 25.18268 | 55.30532 | 6179 ft | 291 kts | 117° |
| 2026-04-23 21:01 | 25.17401 | 55.32547 | 5813 ft | 289 kts | 116° |
| 2026-04-23 21:01 | 25.16541 | 55.34543 | 5434 ft | 287 kts | 116° |
| 2026-04-23 21:01 | 25.15684 | 55.36525 | 5065 ft | 285 kts | 115° |
| 2026-04-23 21:01 | 25.14834 | 55.38492 | 4693 ft | 282 kts | 115° |
| 2026-04-23 21:02 | 25.13998 | 55.40439 | 4329 ft | 280 kts | 115° |
| 2026-04-23 21:02 | 25.13169 | 55.42372 | 3970 ft | 278 kts | 115° |
| 2026-04-23 21:02 | 25.12352 | 55.44267 | 3619 ft | 275 kts | 115° |
| 2026-04-23 21:02 | 25.11535 | 55.46160 | 3265 ft | 272 kts | 115° |
| 2026-04-23 21:03 | 25.10634 | 55.47988 | 2916 ft | 269 kts | 120° |
| 2026-04-23 21:03 | 25.09658 | 55.49743 | 2573 ft | 266 kts | 121° |
| 2026-04-23 21:03 | 25.08690 | 55.51467 | 2235 ft | 263 kts | 121° |
| 2026-04-23 21:03 | 25.07754 | 55.53188 | 2003 ft | 261 kts | 115° |
| 2026-04-23 21:04 | 25.07351 | 55.55128 | 1960 ft | 260 kts | 90° |
| 2026-04-23 21:04 | 25.07749 | 55.57054 | 1969 ft | 260 kts | 64° |
| 2026-04-23 21:04 | 25.08865 | 55.58614 | 1974 ft | 262 kts | 40° |
| 2026-04-23 21:04 | 25.10458 | 55.59564 | 1981 ft | 264 kts | 15° |
| 2026-04-23 21:05 | 25.12266 | 55.59539 | 1981 ft | 268 kts | 345° |
| 2026-04-23 21:05 | 25.13848 | 55.58483 | 1980 ft | 266 kts | 314° |
| 2026-04-23 21:05 | 25.14798 | 55.56828 | 1977 ft | 247 kts | 295° |
| 2026-04-23 21:05 | 25.15440 | 55.55135 | 1973 ft | 230 kts | 293° |
| 2026-04-23 21:06 | 25.16067 | 55.53582 | 1961 ft | 213 kts | 297° |
| 2026-04-23 21:06 | 25.16735 | 55.52189 | 2015 ft | 203 kts | 301° |
| 2026-04-23 21:06 | 25.17454 | 55.50838 | 2032 ft | 203 kts | 302° |
| 2026-04-23 21:06 | 25.18185 | 55.49505 | 1997 ft | 203 kts | 303° |
| 2026-04-23 21:07 | 25.18915 | 55.48174 | 1803 ft | 203 kts | 303° |
| 2026-04-23 21:07 | 25.19632 | 55.46831 | 1552 ft | 203 kts | 301° |
| 2026-04-23 21:07 | 25.20296 | 55.45463 | 1273 ft | 202 kts | 300° |
| 2026-04-23 21:07 | 25.21046 | 55.44075 | 1147 ft | 209 kts | 303° |
| 2026-04-23 21:08 | 25.21750 | 55.42831 | 919 ft | 180 kts | 303° |
| 2026-04-23 21:08 | 25.22399 | 55.41670 | 479 ft | 170 kts | 303° |
| 2026-04-23 21:08 | 25.22971 | 55.40587 | 302 ft | 156 kts | 301° |
| 2026-04-23 21:08 | 25.23513 | 55.39620 | 97 ft | 144 kts | 305° |
| 2026-04-23 21:09 | 25.24019 | 55.38711 | 29 ft | 133 kts | 304° |
| 2026-04-23 21:09 | 25.24401 | 55.38031 | 27 ft | 63 kts | 302° |
| 2026-04-23 21:09 | 25.24616 | 55.37644 | 28 ft | 55 kts | 302° |
| 2026-04-23 21:09 | 25.24802 | 55.37306 | 28 ft | 50 kts | 301° |
| 2026-04-23 21:10 | 25.24905 | 55.37098 | 28 ft | 7 kts | 274° |
| 2026-04-23 21:10 | 25.24889 | 55.37037 | 28 ft | 10 kts | 224° |
| 2026-04-23 21:10 | 25.24864 | 55.37017 | 28 ft | 2 kts | 211° |
| 2026-04-23 21:10 | 25.24859 | 55.37014 | 28 ft | 0 kts | 211° |
| 2026-04-23 21:11 | 25.24849 | 55.37007 | 28 ft | 4 kts | 211° |
| 2026-04-23 21:11 | 25.24814 | 55.36981 | 14 ft | 9 kts | 228° |
| 2026-04-23 21:12 | 25.24823 | 55.36903 | 28 ft | 13 kts | 296° |
| 2026-04-23 21:12 | 25.24856 | 55.36795 | 28 ft | 17 kts | 281° |
| 2026-04-23 21:12 | 25.24894 | 55.36663 | 28 ft | 20 kts | 298° |
| 2026-04-23 21:12 | 25.24971 | 55.36527 | 28 ft | 22 kts | 302° |
| 2026-04-23 21:13 | 25.25060 | 55.36373 | 28 ft | 25 kts | 302° |
| 2026-04-23 21:13 | 25.25156 | 55.36199 | 28 ft | 28 kts | 302° |
| 2026-04-23 21:13 | 25.25263 | 55.36010 | 28 ft | 30 kts | 302° |
| 2026-04-23 21:13 | 25.25378 | 55.35808 | 28 ft | 32 kts | 302° |
| 2026-04-23 21:14 | 25.25496 | 55.35591 | 28 ft | 31 kts | 301° |
| 2026-04-23 21:14 | 25.25584 | 55.35435 | 28 ft | 25 kts | 302° |
| 2026-04-23 21:14 | 25.25617 | 55.35378 | 28 ft | 0 kts | 302° |
| 2026-04-23 21:14 | 25.25626 | 55.35363 | 28 ft | 5 kts | 302° |
| 2026-04-23 21:15 | 25.25656 | 55.35310 | 28 ft | 11 kts | 302° |
| 2026-04-23 21:15 | 25.25706 | 55.35221 | 28 ft | 16 kts | 302° |
| 2026-04-23 21:15 | 25.25768 | 55.35108 | 28 ft | 19 kts | 299° |
| 2026-04-23 21:15 | 25.25839 | 55.34974 | 28 ft | 22 kts | 301° |
| 2026-04-23 21:16 | 25.25924 | 55.34824 | 28 ft | 24 kts | 302° |
| 2026-04-23 21:16 | 25.26017 | 55.34660 | 28 ft | 21 kts | 302° |
| 2026-04-23 21:16 | 25.26025 | 55.34573 | 28 ft | 14 kts | 236° |
| 2026-04-23 21:16 | 25.26000 | 55.34516 | 28 ft | 7 kts | 273° |
| 2026-04-23 21:17 | 25.26005 | 55.34468 | 28 ft | 7 kts | 242° |
| 2026-04-23 21:17 | 25.25956 | 55.34430 | 28 ft | 10 kts | 210° |
| 2026-04-23 21:17 | 25.25939 | 55.34418 | 28 ft | 2 kts | 211° |
| 2026-04-23 21:17 | 25.25923 | 55.34407 | 28 ft | 2 kts | 211° |
| 2026-04-23 21:18 | 25.25920 | 55.34405 | 28 ft | 0 kts | 211° |